• Join FlightAware (Why Join?)
  • Login
  • US Flag 
01:25AM EDT


 

Airport Tracker/Info


-or-


 

Live Flight TrackerFlight Track Log ✈ JIA2310 ✈ 09-May-2012 ✈ KCLT - KVPS

Flight Track Log - Related Links

Times and Time Zones

All times are in EDT time to prevent confusion due to time zone crossing. See the JIA2310 flight status page for this flight to view local times or setup timezone preferences in your user account.

Time Position Orientation Groundspeed Altitude Reporting Facility
EDT Latitude Longitude Course Direction KTS MPH feet Rate Location/Type
06:47PM 35.2311 -80.9542 277° West 153 176 1,500  Level FAA TRACON SMA TRACON (SMA)
06:51PM 35.2583 -81.2306 199° South 280 322 8,400 1,920 Climbing FAA TRACON SMA TRACON (SMA)
06:51PM 35.2067 -81.2525 196° South 279 321 10,600 2,460 Climbing FAA TRACON SMA TRACON (SMA)
06:52PM 35.1581 -81.2692 198° South 283 326 11,700 1,440 Climbing FAA TRACON SMA TRACON (SMA)
06:53PM 35.1025 -81.2914 235° Southwest 310 357 12,500 1,500 Climbing FAA TRACON SMA TRACON (SMA)
06:53PM 35.0708 -81.3475 250° West 297 342 13,700 1,620 Climbing FAA TRACON SMA TRACON (SMA)
06:54PM 35.0531 -81.4067 249° West 300 345 14,700 1,800 Climbing FAA TRACON SMA TRACON (SMA)
06:55PM 35.0322 -81.4733 250° West 302 348 16,100 1,860 Climbing FAA TRACON SMA TRACON (SMA)
06:55PM 35.0125 -81.5392 250° West 300 345 17,200 1,620 Climbing FAA TRACON SMA TRACON (SMA)
06:56PM 34.9950 -81.5989 249° West 301 346 18,300 1,500 Climbing FAA TRACON SMA TRACON (SMA)
06:57PM 34.9739 -81.6664 250° West 304 350 19,200 1,020 Climbing FAA TRACON SMA TRACON (SMA)
06:57PM 34.9567 -81.7228 243° Southwest 310 357 19,700 1,080 Climbing FAA TRACON SMA TRACON (SMA)
06:59PM 34.8939 -81.8736 235° Southwest 317 365 21,400 1,140 Climbing Atlanta Center
07:00PM 34.8431 -81.9608 236° Southwest 326 375 22,400 960 Climbing Atlanta Center
07:01PM 34.7925 -82.0508 235° Southwest 326 375 23,400 960 Climbing Atlanta Center
07:02PM 34.7397 -82.1431 236° Southwest 333 383 24,400 960 Climbing Atlanta Center
07:03PM 34.6889 -82.2350 224° Southwest 338 389 25,400 960 Climbing Atlanta Center
07:04PM 34.6231 -82.3122 222° Southwest 333 383 26,400 780 Climbing Atlanta Center
07:05PM 34.5533 -82.3892 222° Southwest 333 383 27,000 540 Climbing Atlanta Center
07:06PM 34.4814 -82.4664 222° Southwest 344 396 27,500 480 Climbing Atlanta Center
07:07PM 34.4092 -82.5458 220° Southwest 350 403 28,000 480 Climbing Atlanta Center
07:08PM 34.3392 -82.6175 223° Southwest 363 418 28,500 480 Climbing Atlanta Center
07:09PM 34.2608 -82.7067 222° Southwest 363 418 29,000 480 Climbing Atlanta Center
07:10PM 34.1825 -82.7908 221° Southwest 363 418 29,500 480 Climbing Atlanta Center
07:11PM 34.1081 -82.8697 219° Southwest 363 418 30,000 480 Climbing Atlanta Center
07:12PM 34.0272 -82.9483 222° Southwest 368 423 30,500 480 Climbing Atlanta Center
07:13PM 33.9508 -83.0322 221° Southwest 368 423 31,000 480 Climbing Atlanta Center
07:14PM 33.8742 -83.1131 222° Southwest 368 423 31,500 480 Climbing Atlanta Center
07:15PM 33.7997 -83.1939 221° Southwest 363 418 32,000 240 Climbing Atlanta Center
07:16PM 33.7208 -83.2769 222° Southwest 369 425 32,000  Level Atlanta Center
07:17PM 33.6503 -83.3525 220° Southwest 376 433 32,000  Level Atlanta Center
07:18PM 33.5714 -83.4331 222° Southwest 381 438 32,000  Level Atlanta Center
07:19PM 33.4947 -83.5156 220° Southwest 381 438 32,000  Level Atlanta Center
07:20PM 33.4178 -83.5933 222° Southwest 381 438 32,000  Level Atlanta Center
07:21PM 33.3408 -83.6758 220° Southwest 381 438 32,000  Level Atlanta Center
07:22PM 33.2594 -83.7581 221° Southwest 381 438 32,000  Level Atlanta Center
07:23PM 33.1719 -83.8478 221° Southwest 386 444 32,000  Level Atlanta Center
07:24PM 33.0928 -83.9297 222° Southwest 386 444 32,000  Level Atlanta Center
07:25PM 33.0136 -84.0142 222° Southwest 386 444 32,000  Level Atlanta Center
07:26PM 32.9175 -84.1156 221° Southwest 386 444 32,000  Level Atlanta Center
07:27PM 32.8361 -84.1994 219° Southwest 386 444 32,000  Level Atlanta Center
07:28PM 32.7525 -84.2808 222° Southwest 386 444 32,000  Level Atlanta Center
07:29PM 32.6750 -84.3647 219° Southwest 386 444 32,000  Level Atlanta Center
07:30PM 32.5933 -84.4431 221° Southwest 386 444 32,000  Level Atlanta Center
07:31PM 32.5075 -84.5314 220° Southwest 386 444 32,000  Level Atlanta Center
07:32PM 32.4278 -84.6097 221° Southwest 386 444 32,000  Level Atlanta Center
07:33PM 32.3461 -84.6928 221° Southwest 386 444 32,000  Level Atlanta Center
07:34PM 32.2661 -84.7758 220° Southwest 386 444 32,000  Level Atlanta Center
07:35PM 32.1906 -84.8511 220° Southwest 386 444 32,000 -420 Level Atlanta Center
07:37PM 32.0361 -85.0025 219° Southwest 374 430 30,800 -960 Descending Jacksonville Center
07:38PM 31.9533 -85.0817 221° Southwest 380 437 29,300 -1,500 Descending Jacksonville Center
07:39PM 31.8728 -85.1628 221° Southwest 386 444 27,800 -1,560 Descending Jacksonville Center
07:40PM 31.7856 -85.2511 220° Southwest 386 444 26,200 -1,680 Descending Jacksonville Center
07:41PM 31.7067 -85.3297 221° Southwest 379 436 24,500 -1,140 Descending Jacksonville Center
07:42PM 31.6344 -85.4033 219° Southwest 371 427 24,000 -300 Descending Jacksonville Center
07:43PM 31.5642 -85.4697 222° Southwest 345 397 24,000  Level Jacksonville Center
07:44PM 31.4958 -85.5408 219° Southwest 329 379 24,000  Level Jacksonville Center
07:45PM 31.4256 -85.6072 221° Southwest 329 379 24,000  Level Jacksonville Center
07:46PM 31.3531 -85.6806 220° Southwest 339 390 24,000 -660 Level Jacksonville Center
07:47PM 31.2825 -85.7489 221° Southwest 339 390 22,700 -1,740 Descending Jacksonville Center
07:48PM 31.2164 -85.8172 219° Southwest 344 396 20,600 -2,340 Descending Jacksonville Center
07:49PM 31.1417 -85.8878 220° Southwest 344 396 18,100 -2,460 Descending Jacksonville Center
07:50PM 31.0689 -85.9583 220° Southwest 344 396 15,700 -2,580 Descending Jacksonville Center
07:51PM 30.9942 -86.0308 219° Southwest 328 377 13,000 -2,340 Descending Jacksonville Center
07:52PM 30.9278 -86.0942 227° Southwest 328 377 11,100 -1,740 Descending Jacksonville Center
07:53PM 30.8739 -86.1625 234° Southwest 309 356 9,600 -1,800 Descending Jacksonville Center
07:54PM 30.8281 -86.2358 233° Southwest 294 338 7,500 -2,100 Descending Jacksonville Center
07:55PM 30.7822 -86.3067 233° Southwest 289 333 5,500 -2,040 Descending Jacksonville Center
07:56PM 30.7367 -86.3775 234° Southwest 283 326 3,500 -1,800 Descending Jacksonville Center
07:57PM 30.6928 -86.4483 203° Southwest 283 326 2,000 -780 Descending Jacksonville Center
07:58PM 30.6378 -86.4753 203° Southwest 243 280 2,000  Level Jacksonville Center